createdAt,value
2022-10-19T00:00:01.014Z,15.80
2022-10-19T00:04:07.825Z,10.90
2022-10-19T00:08:10.792Z,12.10
2022-10-19T00:12:12.862Z,10.60
2022-10-19T00:16:16.506Z,9.50
2022-10-19T00:20:18.396Z,12.20
2022-10-19T00:24:20.840Z,12.00
2022-10-19T00:28:22.700Z,12.20
2022-10-19T00:32:24.548Z,15.10
2022-10-19T00:36:32.514Z,15.80
2022-10-19T00:40:38.732Z,10.70
2022-10-19T00:44:43.757Z,12.60
2022-10-19T00:48:45.982Z,14.90
2022-10-19T00:52:47.935Z,15.90
2022-10-19T00:56:54.375Z,14.20
2022-10-19T01:00:57.633Z,11.50
2022-10-19T01:05:00.802Z,12.10
2022-10-19T01:09:03.092Z,15.80
2022-10-19T01:13:42.212Z,15.40
2022-10-19T01:17:54.869Z,12.60
2022-10-19T01:22:26.988Z,18.10
2022-10-19T01:26:59.281Z,14.50
2022-10-19T01:31:26.128Z,16.60
2022-10-19T01:35:30.770Z,15.20
2022-10-19T01:39:45.274Z,14.30
2022-10-19T01:43:55.899Z,12.40
2022-10-19T01:48:18.579Z,12.70
2022-10-19T01:52:23.289Z,13.60
2022-10-19T01:56:27.919Z,14.70
2022-10-19T02:00:32.308Z,21.20
2022-10-19T02:04:36.368Z,22.10
2022-10-19T02:08:43.893Z,15.20
2022-10-19T02:12:47.619Z,13.80
2022-10-19T02:16:54.723Z,13.40
2022-10-19T02:20:57.866Z,21.10
2022-10-19T02:25:00.149Z,14.30
2022-10-19T02:29:02.092Z,12.40
2022-10-19T02:33:03.997Z,16.60
2022-10-19T02:37:06.460Z,12.40
2022-10-19T02:41:21.180Z,15.00
2022-10-19T02:45:30.537Z,15.80
2022-10-19T02:49:36.321Z,13.70
2022-10-19T02:53:38.186Z,12.50
2022-10-19T02:57:40.050Z,15.40
2022-10-19T03:01:42.076Z,13.60
2022-10-19T03:05:43.948Z,22.40
2022-10-19T03:09:45.973Z,13.60
2022-10-19T03:17:54.874Z,17.80
2022-10-19T03:21:56.880Z,18.40
2022-10-19T03:25:58.760Z,19.70
2022-10-19T03:30:00.611Z,17.20
2022-10-19T03:34:02.983Z,17.00
2022-10-19T03:38:04.818Z,15.10
2022-10-19T03:42:06.766Z,25.40
2022-10-19T03:46:08.840Z,17.90
2022-10-19T03:50:13.581Z,14.30
2022-10-19T03:54:16.612Z,14.40
2022-10-19T03:58:18.565Z,18.70
2022-10-19T04:02:20.473Z,18.90
2022-10-19T04:06:28.126Z,14.10
2022-10-19T04:10:31.083Z,16.40
2022-10-19T04:14:39.329Z,20.80
2022-10-19T04:18:55.245Z,19.90
2022-10-19T04:22:57.109Z,19.60
2022-10-19T04:26:58.996Z,16.40
2022-10-19T04:31:05.993Z,21.40
2022-10-19T04:35:07.955Z,20.10
2022-10-19T04:39:09.905Z,19.10
2022-10-19T04:43:11.741Z,22.60
2022-10-19T04:47:13.607Z,21.30
2022-10-19T04:51:16.669Z,22.00
2022-10-19T04:55:19.029Z,21.70
2022-10-19T04:59:21.234Z,18.40
2022-10-19T05:03:23.271Z,16.40
2022-10-19T05:07:25.323Z,16.80
2022-10-19T05:11:27.814Z,23.30
2022-10-19T05:15:30.470Z,20.70
2022-10-19T05:19:32.550Z,20.60
2022-10-19T05:23:34.843Z,25.40
2022-10-19T05:27:37.219Z,18.20
2022-10-19T05:31:39.916Z,19.60
2022-10-19T05:35:42.228Z,17.80
2022-10-19T05:39:44.383Z,16.70
2022-10-19T05:43:47.060Z,19.50
2022-10-19T05:47:48.908Z,23.90
2022-10-19T05:51:50.848Z,21.70
2022-10-19T05:55:52.803Z,17.90
2022-10-19T05:59:57.925Z,15.80
2022-10-19T06:04:01.457Z,17.30
2022-10-19T06:08:03.535Z,15.20
2022-10-19T06:12:05.400Z,25.00
2022-10-19T06:16:09.018Z,20.70
2022-10-19T06:20:11.253Z,17.30
2022-10-19T06:24:13.189Z,14.70
2022-10-19T06:28:15.121Z,16.80
2022-10-19T06:32:17.230Z,13.50
2022-10-19T06:36:22.017Z,14.20
2022-10-19T06:40:25.606Z,15.60
2022-10-19T06:44:27.602Z,14.60
2022-10-19T06:48:29.464Z,16.40
2022-10-19T06:52:32.586Z,20.90
2022-10-19T06:56:34.955Z,15.50
2022-10-19T07:00:36.815Z,13.30
2022-10-19T07:04:38.857Z,13.30
2022-10-19T07:08:42.301Z,18.00
2022-10-19T07:12:44.270Z,13.30
2022-10-19T07:16:46.245Z,16.30
2022-10-19T07:20:59.129Z,13.50
2022-10-19T07:25:01.038Z,16.10
2022-10-19T07:29:03.860Z,13.40
2022-10-19T07:33:06.384Z,10.60
2022-10-19T07:37:08.271Z,14.10
2022-10-19T07:41:12.945Z,12.90
2022-10-19T07:45:14.941Z,11.10
2022-10-19T07:49:18.635Z,15.10
2022-10-19T07:53:20.799Z,17.00
2022-10-19T07:57:22.640Z,16.80
2022-10-19T08:01:31.461Z,14.20
2022-10-19T08:05:34.596Z,8.00
2022-10-19T08:09:53.881Z,15.90
2022-10-19T08:13:58.717Z,14.50
2022-10-19T08:18:00.652Z,16.90
2022-10-19T08:22:02.519Z,8.60
2022-10-19T08:26:04.533Z,14.50
2022-10-19T08:30:06.980Z,16.40
2022-10-19T08:34:09.540Z,9.80
2022-10-19T08:38:11.433Z,10.90
2022-10-19T08:42:22.675Z,14.00
2022-10-19T08:46:29.669Z,15.80
2022-10-19T08:50:38.527Z,11.70
2022-10-19T08:59:13.668Z,9.60
2022-10-19T09:03:27.095Z,15.80
2022-10-19T09:07:45.200Z,11.90
2022-10-19T09:11:50.354Z,7.20
2022-10-19T09:15:54.822Z,7.70
2022-10-19T09:19:57.991Z,9.00
2022-10-19T09:24:15.732Z,9.70
2022-10-19T09:28:55.591Z,9.00
2022-10-19T09:37:03.904Z,7.80
2022-10-19T09:41:18.870Z,8.70
2022-10-19T09:45:38.329Z,7.00
2022-10-19T09:49:45.782Z,5.70
2022-10-19T09:53:52.451Z,4.40
2022-10-19T09:58:04.110Z,7.40
2022-10-19T10:02:05.918Z,7.90
2022-10-19T10:06:12.157Z,6.90
2022-10-19T10:10:29.760Z,6.20
2022-10-19T10:14:36.102Z,5.50
2022-10-19T10:18:54.027Z,7.90
2022-10-19T10:22:59.865Z,8.30
2022-10-19T10:27:05.361Z,7.50
2022-10-19T10:31:08.541Z,7.00
2022-10-19T10:35:20.993Z,5.10
2022-10-19T10:39:26.540Z,3.10
2022-10-19T10:43:34.403Z,6.80
2022-10-19T10:47:39.038Z,7.80
2022-10-19T10:51:49.203Z,7.20
2022-10-19T10:55:57.212Z,5.70
2022-10-19T11:00:07.784Z,8.00
2022-10-19T11:04:16.133Z,5.70
2022-10-19T11:08:43.880Z,16.20
2022-10-19T11:12:51.750Z,1.60
2022-10-19T11:16:57.356Z,2.80
2022-10-19T11:21:25.927Z,1.80
2022-10-19T11:25:48.878Z,5.60
2022-10-19T11:30:12.847Z,16.10
2022-10-19T11:34:52.515Z,17.50
2022-10-19T11:39:34.130Z,9.20
2022-10-19T11:43:51.173Z,8.60
2022-10-19T11:48:09.739Z,5.30
2022-10-19T11:52:30.004Z,3.40
2022-10-19T11:56:58.072Z,5.00
2022-10-19T12:01:23.463Z,3.10
2022-10-19T12:05:37.636Z,4.30
2022-10-19T12:09:47.464Z,2.30
2022-10-19T12:14:00.539Z,4.00
2022-10-19T12:18:36.252Z,8.10
2022-10-19T12:22:39.841Z,6.70
2022-10-19T12:26:44.254Z,5.50
2022-10-19T12:30:46.664Z,7.60
2022-10-19T12:35:03.239Z,3.80
2022-10-19T12:39:07.921Z,5.60
2022-10-19T12:43:12.674Z,10.40
2022-10-19T12:47:23.053Z,12.70
2022-10-19T12:51:25.009Z,6.30
2022-10-19T12:55:34.480Z,7.00
2022-10-19T12:59:37.218Z,10.00
2022-10-19T13:03:44.542Z,11.60
2022-10-19T13:12:17.739Z,14.80
2022-10-19T13:16:29.674Z,4.20
2022-10-19T13:20:33.400Z,5.20
2022-10-19T13:24:36.990Z,18.10
2022-10-19T13:28:52.902Z,20.30
2022-10-19T13:32:54.835Z,2.20
2022-10-19T13:37:02.045Z,2.80
2022-10-19T13:41:15.469Z,2.40
2022-10-19T13:45:24.526Z,4.80
2022-10-19T13:49:49.288Z,7.40
2022-10-19T13:54:13.535Z,4.00
2022-10-19T13:58:53.901Z,6.20
2022-10-19T14:03:01.466Z,9.10
2022-10-19T14:07:15.357Z,3.80
2022-10-19T14:11:19.030Z,4.10
2022-10-19T14:15:27.602Z,3.60
2022-10-19T14:23:39.359Z,1.80
2022-10-19T14:27:41.965Z,3.20
2022-10-19T14:31:43.867Z,6.20
2022-10-19T14:35:49.634Z,3.00
2022-10-19T14:40:05.278Z,2.80
2022-10-19T14:44:40.801Z,6.20
2022-10-19T14:48:45.420Z,7.50
2022-10-19T14:52:51.796Z,4.20
2022-10-19T14:56:59.257Z,6.20
2022-10-19T15:01:01.398Z,7.70
2022-10-19T15:05:05.538Z,3.90
2022-10-19T15:09:24.705Z,6.70
2022-10-19T15:13:42.680Z,7.20
2022-10-19T15:17:54.027Z,3.30
2022-10-19T15:22:14.023Z,11.30
2022-10-19T15:26:21.686Z,9.70
2022-10-19T15:30:28.291Z,28.20
2022-10-19T15:34:30.842Z,52.80
2022-10-19T15:38:34.354Z,108.30
2022-10-19T15:42:44.152Z,82.90
2022-10-19T15:46:49.154Z,130.50
2022-10-19T15:50:53.853Z,112.60
2022-10-19T15:54:58.088Z,118.70
2022-10-19T15:59:02.675Z,80.60
2022-10-19T16:03:04.739Z,44.00
2022-10-19T16:07:06.792Z,96.70
2022-10-19T16:11:13.272Z,83.10
2022-10-19T16:15:21.864Z,53.00
2022-10-19T16:19:23.864Z,32.10
2022-10-19T16:23:26.999Z,9.50
2022-10-19T16:27:29.060Z,13.00
2022-10-19T16:31:31.213Z,7.60
2022-10-19T16:35:33.281Z,6.60
2022-10-19T16:39:35.365Z,5.50
2022-10-19T16:43:37.916Z,10.60
2022-10-19T16:47:39.971Z,5.50
2022-10-19T16:51:42.256Z,5.50
2022-10-19T16:55:44.179Z,11.40
2022-10-19T16:59:50.915Z,11.50
2022-10-19T17:03:53.351Z,12.20
2022-10-19T17:07:55.297Z,19.10
2022-10-19T17:11:57.249Z,13.10
2022-10-19T17:16:02.638Z,22.10
2022-10-19T17:20:05.167Z,34.20
2022-10-19T17:24:13.837Z,58.70
2022-10-19T17:28:19.223Z,139.90
2022-10-19T17:32:21.988Z,163.10
2022-10-19T17:36:28.085Z,143.10
2022-10-19T17:40:30.081Z,126.90
2022-10-19T17:44:32.113Z,200.40
2022-10-19T17:48:35.773Z,225.50
2022-10-19T17:52:37.674Z,149.30
2022-10-19T17:56:41.196Z,112.30
2022-10-19T18:00:43.561Z,90.50
2022-10-19T18:04:45.529Z,75.70
2022-10-19T18:08:50.703Z,113.60
2022-10-19T18:12:52.791Z,90.10
2022-10-19T18:16:54.729Z,72.80
2022-10-19T18:20:57.332Z,74.70
2022-10-19T18:24:59.257Z,87.80
2022-10-19T18:29:09.552Z,57.30
2022-10-19T18:33:11.547Z,64.00
2022-10-19T18:37:13.608Z,48.60
2022-10-19T18:41:15.532Z,50.90
2022-10-19T18:45:17.680Z,42.50
2022-10-19T18:49:20.023Z,36.60
2022-10-19T18:53:22.526Z,33.80
2022-10-19T18:57:28.248Z,34.50
2022-10-19T19:01:33.408Z,30.10
2022-10-19T19:05:35.424Z,27.30
2022-10-19T19:09:37.857Z,23.10
2022-10-19T19:13:40.830Z,24.40
2022-10-19T19:17:42.967Z,29.60
2022-10-19T19:21:45.853Z,41.50
2022-10-19T19:25:47.740Z,30.40
2022-10-19T19:29:57.570Z,29.80
2022-10-19T19:34:00.792Z,30.30
2022-10-19T19:38:02.710Z,23.40
2022-10-19T19:42:04.799Z,28.40
2022-10-19T19:46:12.089Z,24.20
2022-10-19T19:50:14.045Z,26.80
2022-10-19T19:54:15.902Z,21.10
2022-10-19T19:58:18.508Z,18.80
2022-10-19T20:02:20.929Z,23.40
2022-10-19T20:06:25.778Z,23.90
2022-10-19T20:10:28.229Z,20.00
2022-10-19T20:14:30.177Z,23.00
2022-10-19T20:18:32.099Z,17.20
2022-10-19T20:22:34.164Z,13.80
2022-10-19T20:26:36.220Z,17.80
2022-10-19T20:30:38.087Z,24.80
2022-10-19T20:34:40.033Z,17.30
2022-10-19T20:38:48.376Z,18.90
2022-10-19T20:42:50.288Z,19.30
2022-10-19T20:46:52.141Z,16.20
2022-10-19T20:50:54.020Z,16.00
2022-10-19T20:54:55.997Z,20.20
2022-10-19T20:59:04.530Z,20.10
2022-10-19T21:03:06.626Z,20.10
2022-10-19T21:07:08.645Z,21.60
2022-10-19T21:11:16.720Z,24.80
2022-10-19T21:15:18.585Z,17.40
2022-10-19T21:19:23.383Z,24.50
2022-10-19T21:23:25.321Z,24.30
2022-10-19T21:27:27.170Z,17.40
2022-10-19T21:31:29.165Z,19.30
2022-10-19T21:35:31.490Z,19.40
2022-10-19T21:39:33.485Z,17.40
2022-10-19T21:43:35.583Z,21.90
2022-10-19T21:47:37.948Z,16.20
2022-10-19T21:51:56.633Z,15.30
2022-10-19T21:55:59.057Z,17.80
2022-10-19T22:00:01.028Z,20.00
2022-10-19T22:04:05.202Z,14.50
2022-10-19T22:08:07.176Z,21.70
2022-10-19T22:12:09.346Z,16.00
2022-10-19T22:16:17.406Z,12.20
2022-10-19T22:20:19.313Z,38.00
2022-10-19T22:24:21.254Z,32.00
2022-10-19T22:28:23.275Z,33.90
2022-10-19T22:32:25.311Z,38.10
2022-10-19T22:36:27.845Z,43.30
2022-10-19T22:40:29.720Z,24.90
2022-10-19T22:44:31.934Z,24.20
2022-10-19T22:48:33.820Z,13.50
2022-10-19T22:52:35.811Z,17.60
2022-10-19T22:56:38.155Z,10.60
2022-10-19T23:00:40.308Z,11.20
2022-10-19T23:04:42.189Z,31.90
2022-10-19T23:08:44.696Z,70.80
2022-10-19T23:12:51.341Z,58.60
2022-10-19T23:16:53.218Z,50.80
2022-10-19T23:21:00.930Z,45.60
2022-10-19T23:25:03.110Z,34.50
2022-10-19T23:29:05.075Z,36.80
2022-10-19T23:33:06.880Z,28.00
2022-10-19T23:37:08.729Z,19.10
2022-10-19T23:41:11.590Z,22.70
2022-10-19T23:45:14.874Z,18.10
2022-10-19T23:49:16.833Z,21.10
2022-10-19T23:53:18.757Z,25.00
2022-10-19T23:57:20.651Z,15.20
